Beja, Russia
Current Conditions -  °F | °C
As of 5:30 PM on Thursday 23 Oct 2014 (Local Time) from UNAA Reporting Station
Broken Clouds Broken Clouds  
Wind Chill: 36°   Ceiling: 6600
Heat Index: 39°   Visibility: 6mi
Dew Point: 32°   Wind: 4mph
Humidity: 75%   Direction: 180°S
Pressure: 29.88"   Gusts: NA
Location:  53.05°N, 90.91°E
Report Text: UNAA 231030Z 18002MPS 9000 SCT026CB BKN066 04/00 Q1012 NOSIGRMK QFE736 20190060
Loading
Personal Weather Stations






























Interactive Weather Map
Tropical Storm Tracking
New forecast layout! Learn more

10-Day Weather Forecast

Advertisements
Track Severe Weather on mobile